Time;durP1;ratioP1;P1;durP2;ratioP2;P2;SDS_P1;SDS_P2;PMS_P1;PMS_P2;Temp;Humidity;BMP_temperature;BMP_pressure;BME280_temperature;BME280_humidity;BME280_pressure;Samples;Min_cycle;Max_cycle;Signal;HPM_P1;HPM_P2
2022/12/06 00:04:10;;;;;;;6.18;4.40;;;;;;;;;;10432956;28;20218;-79
2022/12/06 00:09:22;;;;;;;8.50;5.82;;;;;;;;;;10409745;28;20227;-78
2022/12/06 00:14:24;;;;;;;12.20;4.88;;;;;;;;;;10415491;28;20276;-78
2022/12/06 00:19:25;;;;;;;8.00;5.30;;;;;;;;;;10430790;28;20221;-79
2022/12/06 00:24:26;;;;;;;5.55;4.22;;;;;;;;;;10427059;28;20265;-78
2022/12/06 00:29:27;;;;;;;5.50;4.97;;;;;;;;;;10428223;28;20238;-79
2022/12/06 00:34:28;;;;;;;7.72;5.13;;;;;;;;;;10428911;28;20303;-79
2022/12/06 00:39:29;;;;;;;7.10;4.45;;;;;;;;;;10429894;28;20254;-78
2022/12/06 00:44:30;;;;;;;5.55;4.93;;;;;;;;;;10422361;28;20417;-79
2022/12/06 00:49:31;;;;;;;5.68;5.10;;;;;;;;;;10410416;28;20223;-79
2022/12/06 00:54:33;;;;;;;7.50;4.85;;;;;;;;;;10429772;28;20203;-78
2022/12/06 00:59:34;;;;;;;8.48;4.47;;;;;;;;;;10423584;28;21245;-79
2022/12/06 01:04:36;;;;;;;4.70;4.05;;;;;;;;;;10384936;28;20211;-79
2022/12/06 01:09:37;;;;;;;7.47;4.80;;;;;;;;;;10367951;28;20226;-79
2022/12/06 01:14:38;;;;;;;7.20;4.70;;;;;;;;;;10405785;28;20302;-79
2022/12/06 01:19:39;;;;;;;5.63;4.35;;;;;;;;;;10436448;28;20215;-78
2022/12/06 01:24:40;;;;;;;6.63;4.93;;;;;;;;;;10412476;28;20219;-79
2022/12/06 01:29:41;;;;;;;6.78;5.50;;;;;;;;;;10422556;28;20698;-79
2022/12/06 01:34:44;;;;;;;6.82;5.25;;;;;;;;;;10426085;28;20231;-79
2022/12/06 01:39:45;;;;;;;6.55;4.78;;;;;;;;;;10407437;28;20670;-79
2022/12/06 01:44:46;;;;;;;7.15;5.20;;;;;;;;;;10423193;28;20237;-79
2022/12/06 01:49:53;;;;;;;7.63;5.22;;;;;;;;;;10417956;28;20215;-78
2022/12/06 01:54:54;;;;;;;5.40;4.68;;;;;;;;;;10425812;28;20219;-78
2022/12/06 01:59:56;;;;;;;7.13;4.57;;;;;;;;;;10419948;28;20237;-78
2022/12/06 02:04:58;;;;;;;8.65;5.35;;;;;;;;;;10429596;28;20288;-79
2022/12/06 02:09:59;;;;;;;7.38;4.78;;;;;;;;;;10413699;28;20211;-79
2022/12/06 02:15:01;;;;;;;6.28;4.97;;;;;;;;;;10425743;28;22628;-78
2022/12/06 02:20:10;;;;;;;13.15;6.18;;;;;;;;;;10428672;28;20905;-79
2022/12/06 02:25:11;;;;;;;9.20;5.80;;;;;;;;;;10404450;28;20241;-78
2022/12/06 02:30:33;;;;;;;10.07;6.15;;;;;;;;;;10424007;28;20214;-79
2022/12/06 02:35:37;;;;;;;10.82;5.53;;;;;;;;;;10416966;28;20696;-78
2022/12/06 02:40:41;;;;;;;16.33;7.03;;;;;;;;;;10422342;28;20216;-79
2022/12/06 02:45:44;;;;;;;15.95;7.38;;;;;;;;;;10411312;28;20602;-78
2022/12/06 02:50:49;;;;;;;18.08;6.50;;;;;;;;;;10426986;28;20634;-79
2022/12/06 02:55:50;;;;;;;16.88;6.63;;;;;;;;;;10422384;28;20214;-78
2022/12/06 03:01:01;;;;;;;18.60;7.57;;;;;;;;;;10415746;28;20310;-78
2022/12/06 03:06:02;;;;;;;17.67;7.25;;;;;;;;;;10348199;28;20250;-78
2022/12/06 03:11:03;;;;;;;15.98;7.55;;;;;;;;;;10407415;28;20938;-78
2022/12/06 03:16:05;;;;;;;13.07;6.60;;;;;;;;;;10428908;28;20226;-79
2022/12/06 03:21:15;;;;;;;16.50;7.40;;;;;;;;;;10426311;28;20222;-79
2022/12/06 03:26:17;;;;;;;13.55;6.40;;;;;;;;;;10415290;28;20210;-79
2022/12/06 03:31:21;;;;;;;9.02;5.88;;;;;;;;;;10409786;28;20305;-78
2022/12/06 03:36:24;;;;;;;14.80;6.75;;;;;;;;;;10413240;28;20285;-79
2022/12/06 03:41:31;;;;;;;14.50;6.82;;;;;;;;;;10432914;28;20221;-79
2022/12/06 03:46:34;;;;;;;11.05;6.78;;;;;;;;;;10434510;28;20234;-79
2022/12/06 03:51:36;;;;;;;11.68;6.07;;;;;;;;;;10426856;28;20308;-79
2022/12/06 03:56:38;;;;;;;13.73;6.38;;;;;;;;;;10427575;28;20365;-78
2022/12/06 04:01:39;;;;;;;10.75;6.07;;;;;;;;;;10425680;28;22310;-79
2022/12/06 04:06:40;;;;;;;10.77;6.05;;;;;;;;;;10423922;28;20214;-79
2022/12/06 04:11:41;;;;;;;11.38;6.20;;;;;;;;;;10428350;28;20215;-79
2022/12/06 04:48:41;;;;;;;9.50;4.55;;;;;;;;;;10368091;28;20312;-78
2022/12/06 04:53:42;;;;;;;7.30;4.53;;;;;;;;;;10376828;28;20207;-78
2022/12/06 04:58:43;;;;;;;9.98;4.95;;;;;;;;;;10393420;28;20254;-79
2022/12/06 05:03:44;;;;;;;9.27;4.85;;;;;;;;;;10350192;28;20220;-79
2022/12/06 05:08:46;;;;;;;6.82;4.80;;;;;;;;;;10365680;28;20240;-79
2022/12/06 05:13:47;;;;;;;6.43;4.43;;;;;;;;;;10386629;28;20208;-79
2022/12/06 05:18:48;;;;;;;6.90;4.82;;;;;;;;;;10361753;28;20219;-79
2022/12/06 05:23:52;;;;;;;8.32;5.95;;;;;;;;;;10388428;28;20212;-79
2022/12/06 05:28:54;;;;;;;7.22;6.05;;;;;;;;;;10373503;28;20284;-79
2022/12/06 05:33:55;;;;;;;11.63;5.30;;;;;;;;;;10386307;28;20227;-78
2022/12/06 05:38:56;;;;;;;8.23;5.20;;;;;;;;;;10416178;28;20229;-78
2022/12/06 05:43:57;;;;;;;6.68;5.22;;;;;;;;;;10395372;28;20230;-79
2022/12/06 05:49:00;;;;;;;11.57;5.45;;;;;;;;;;10409220;28;20222;-80
2022/12/06 05:54:03;;;;;;;6.38;5.20;;;;;;;;;;10415324;28;20698;-79
2022/12/06 05:59:05;;;;;;;9.95;5.45;;;;;;;;;;10422304;28;20249;-79
2022/12/06 06:04:06;;;;;;;12.43;4.97;;;;;;;;;;10405420;28;20229;-79
2022/12/06 06:09:07;;;;;;;8.90;4.80;;;;;;;;;;10407403;28;20253;-79
2022/12/06 06:14:08;;;;;;;6.93;5.78;;;;;;;;;;10413626;28;20225;-78
2022/12/06 06:19:09;;;;;;;7.15;4.93;;;;;;;;;;10417578;28;20222;-78
2022/12/06 06:24:11;;;;;;;8.63;5.85;;;;;;;;;;10438471;28;20231;-81
2022/12/06 06:29:12;;;;;;;9.15;5.13;;;;;;;;;;10440819;28;20218;-79
2022/12/06 06:34:14;;;;;;;7.82;5.05;;;;;;;;;;10397838;28;20277;-79
2022/12/06 06:39:15;;;;;;;9.82;5.40;;;;;;;;;;10418856;28;20230;-79
2022/12/06 06:44:16;;;;;;;9.00;5.18;;;;;;;;;;10413960;28;20229;-80
2022/12/06 06:49:17;;;;;;;9.43;5.13;;;;;;;;;;10415133;28;20203;-80
2022/12/06 06:54:19;;;;;;;8.68;4.60;;;;;;;;;;10422182;28;20246;-80
2022/12/06 06:59:20;;;;;;;4.68;4.00;;;;;;;;;;10415699;28;20219;-81
2022/12/06 07:04:21;;;;;;;5.55;4.55;;;;;;;;;;10412728;28;20230;-82
2022/12/06 07:09:22;;;;;;;4.05;3.67;;;;;;;;;;10420493;28;20219;-81
2022/12/06 07:14:23;;;;;;;5.65;4.45;;;;;;;;;;10418483;28;20245;-82
2022/12/06 07:19:24;;;;;;;4.57;3.10;;;;;;;;;;10404465;28;20227;-81
2022/12/06 07:24:25;;;;;;;4.32;3.65;;;;;;;;;;10422845;28;20210;-81
2022/12/06 07:29:26;;;;;;;3.05;2.85;;;;;;;;;;10426017;28;20212;-82
2022/12/06 07:34:27;;;;;;;3.20;3.00;;;;;;;;;;10416822;28;20353;-82
2022/12/06 07:39:28;;;;;;;5.65;3.65;;;;;;;;;;10408323;28;20215;-81
2022/12/06 07:49:52;;;;;;;5.65;3.75;;;;;;;;;;10412709;28;20242;-81
2022/12/06 07:54:53;;;;;;;3.80;3.17;;;;;;;;;;10420018;28;20223;-82
2022/12/06 07:59:54;;;;;;;3.65;3.45;;;;;;;;;;10417694;28;20864;-82
2022/12/06 08:04:56;;;;;;;4.18;3.78;;;;;;;;;;10450422;28;20301;-82
2022/12/06 08:09:57;;;;;;;3.97;3.55;;;;;;;;;;10423259;28;20219;-81
2022/12/06 08:14:58;;;;;;;3.30;3.00;;;;;;;;;;10428419;28;20207;-81
2022/12/06 08:19:59;;;;;;;2.90;2.80;;;;;;;;;;10400647;28;20219;-81
2022/12/06 08:25:00;;;;;;;4.22;3.40;;;;;;;;;;10410381;28;20250;-81
2022/12/06 08:30:01;;;;;;;3.45;3.15;;;;;;;;;;10422172;28;20286;-82
2022/12/06 08:35:03;;;;;;;5.10;3.22;;;;;;;;;;10402319;28;20226;-81
2022/12/06 08:40:04;;;;;;;2.40;2.30;;;;;;;;;;10430049;28;20557;-81
2022/12/06 08:45:05;;;;;;;2.63;2.42;;;;;;;;;;10398569;28;20873;-81
2022/12/06 08:50:07;;;;;;;2.85;2.65;;;;;;;;;;10431409;28;20195;-81
2022/12/06 08:55:08;;;;;;;5.30;2.85;;;;;;;;;;10384002;28;20554;-81
2022/12/06 09:00:10;;;;;;;3.03;2.58;;;;;;;;;;10417586;28;20607;-81
2022/12/06 09:05:11;;;;;;;3.03;2.72;;;;;;;;;;10417283;28;20206;-82
2022/12/06 09:10:12;;;;;;;3.17;2.55;;;;;;;;;;10414866;28;20202;-82
2022/12/06 09:15:13;;;;;;;3.65;2.70;;;;;;;;;;10419899;28;20547;-81
2022/12/06 09:20:17;;;;;;;2.58;2.47;;;;;;;;;;10417994;28;20688;-82
2022/12/06 09:25:18;;;;;;;3.42;3.13;;;;;;;;;;10413858;28;20206;-81
2022/12/06 09:30:19;;;;;;;2.70;2.40;;;;;;;;;;10390235;28;20237;-82
2022/12/06 09:35:21;;;;;;;2.47;2.28;;;;;;;;;;10416892;28;20617;-82
2022/12/06 09:40:32;;;;;;;2.97;2.78;;;;;;;;;;10408895;28;20234;-82
2022/12/06 09:45:41;;;;;;;2.70;2.50;;;;;;;;;;10401545;28;20746;-83
2022/12/06 09:51:01;;;;;;;2.33;2.22;;;;;;;;;;10402416;28;20215;-83
2022/12/06 09:56:20;;;;;;;2.75;2.60;;;;;;;;;;10363139;28;20209;-82
2022/12/06 10:01:28;;;;;;;2.40;2.30;;;;;;;;;;10409804;28;20225;-83
2022/12/06 10:06:34;;;;;;;2.88;2.30;;;;;;;;;;10419133;28;20214;-82
2022/12/06 10:11:50;;;;;;;2.15;1.90;;;;;;;;;;10417960;28;20218;-82
2022/12/06 10:17:11;;;;;;;3.33;2.22;;;;;;;;;;10424171;28;20206;-82
2022/12/06 10:22:24;;;;;;;2.38;2.28;;;;;;;;;;10420946;28;20681;-82
2022/12/06 10:27:36;;;;;;;2.20;2.00;;;;;;;;;;10419015;28;20223;-81
2022/12/06 10:32:50;;;;;;;2.10;2.00;;;;;;;;;;10425202;28;20227;-82
2022/12/06 10:38:12;;;;;;;2.03;1.88;;;;;;;;;;10418061;28;20276;-82
2022/12/06 10:43:16;;;;;;;2.60;2.40;;;;;;;;;;10413060;28;20223;-80
2022/12/06 10:48:31;;;;;;;3.00;2.03;;;;;;;;;;10419576;28;20206;-82
2022/12/06 10:53:34;;;;;;;1.83;1.70;;;;;;;;;;10407619;28;20216;-83
2022/12/06 10:58:44;;;;;;;1.75;1.65;;;;;;;;;;10415757;28;20210;-82
2022/12/06 11:03:48;;;;;;;1.48;1.48;;;;;;;;;;10406488;28;20286;-83
2022/12/06 11:08:55;;;;;;;1.88;1.77;;;;;;;;;;10405102;28;20482;-81
2022/12/06 11:14:01;;;;;;;9.23;1.70;;;;;;;;;;10419140;28;20276;-81
2022/12/06 11:19:14;;;;;;;1.83;1.73;;;;;;;;;;10435119;28;20420;-82
2022/12/06 11:24:19;;;;;;;3.35;1.15;;;;;;;;;;10422683;28;20246;-81
2022/12/06 11:29:21;;;;;;;0.90;0.90;;;;;;;;;;10418207;28;20219;-81
2022/12/06 11:34:25;;;;;;;0.68;0.68;;;;;;;;;;10410545;28;20317;-81
2022/12/06 11:39:27;;;;;;;0.85;0.85;;;;;;;;;;10415213;28;20223;-80
2022/12/06 11:44:35;;;;;;;0.75;0.75;;;;;;;;;;10421069;28;20230;-82
2022/12/06 11:49:40;;;;;;;0.60;0.60;;;;;;;;;;10405391;28;20314;-82
2022/12/06 11:55:03;;;;;;;0.60;0.60;;;;;;;;;;10418428;28;20221;-81
2022/12/06 12:00:16;;;;;;;0.47;0.47;;;;;;;;;;10413213;28;20252;-81
2022/12/06 12:05:19;;;;;;;1.20;0.77;;;;;;;;;;10408316;28;20228;-82
2022/12/06 12:10:34;;;;;;;0.70;0.70;;;;;;;;;;10424129;28;20198;-82
2022/12/06 12:15:35;;;;;;;1.00;1.00;;;;;;;;;;10415421;28;21208;-82
2022/12/06 12:20:38;;;;;;;0.68;0.68;;;;;;;;;;10420574;28;20236;-82
2022/12/06 12:25:41;;;;;;;0.80;0.80;;;;;;;;;;10404147;28;20227;-82
2022/12/06 12:30:51;;;;;;;0.80;0.73;;;;;;;;;;10427234;28;20717;-81
2022/12/06 12:36:15;;;;;;;1.95;0.90;;;;;;;;;;10427105;28;20277;-81
2022/12/06 12:41:33;;;;;;;1.20;1.20;;;;;;;;;;10409813;28;20231;-81
2022/12/06 12:46:35;;;;;;;0.90;0.90;;;;;;;;;;10418391;28;20228;-81
2022/12/06 12:51:37;;;;;;;1.10;1.10;;;;;;;;;;10429571;28;20218;-82
2022/12/06 12:56:38;;;;;;;1.70;1.35;;;;;;;;;;10396733;28;20240;-82
2022/12/06 13:01:58;;;;;;;0.80;0.80;;;;;;;;;;10407265;28;20215;-83
2022/12/06 13:06:59;;;;;;;1.00;1.00;;;;;;;;;;10438801;28;20750;-82
2022/12/06 13:12:05;;;;;;;1.92;0.93;;;;;;;;;;10421617;28;20223;-82
2022/12/06 13:17:07;;;;;;;1.15;0.88;;;;;;;;;;10397855;28;20747;-82
2022/12/06 13:22:14;;;;;;;2.92;0.82;;;;;;;;;;10419566;28;20741;-82
2022/12/06 13:27:17;;;;;;;1.48;1.45;;;;;;;;;;10423405;28;20238;-81
2022/12/06 13:32:23;;;;;;;1.42;1.33;;;;;;;;;;10413707;28;20242;-81
2022/12/06 13:37:26;;;;;;;4.55;1.27;;;;;;;;;;10418422;28;20234;-82
2022/12/06 13:42:37;;;;;;;1.83;1.50;;;;;;;;;;10414185;28;20215;-81
2022/12/06 13:47:39;;;;;;;3.70;1.88;;;;;;;;;;10408108;28;20243;-80
2022/12/06 13:52:42;;;;;;;3.67;2.15;;;;;;;;;;10412756;28;20689;-81
2022/12/06 13:57:44;;;;;;;3.40;3.08;;;;;;;;;;10413662;28;20267;-81
2022/12/06 14:02:45;;;;;;;2.47;2.22;;;;;;;;;;10414124;28;20222;-81
2022/12/06 14:07:46;;;;;;;2.90;2.22;;;;;;;;;;10413411;28;20325;-81
2022/12/06 14:12:57;;;;;;;2.33;2.22;;;;;;;;;;10406605;28;20781;-81
2022/12/06 14:17:59;;;;;;;2.88;2.25;;;;;;;;;;10412691;28;20218;-82
2022/12/06 14:23:00;;;;;;;3.05;2.50;;;;;;;;;;10386310;28;20222;-80
2022/12/06 14:28:02;;;;;;;5.70;3.20;;;;;;;;;;10417831;28;20210;-82
2022/12/06 14:33:15;;;;;;;2.17;1.90;;;;;;;;;;10413801;28;20577;-81
2022/12/06 14:38:24;;;;;;;1.95;1.85;;;;;;;;;;10437721;28;20206;-81
2022/12/06 14:43:26;;;;;;;2.70;1.83;;;;;;;;;;10413365;28;20714;-81
2022/12/06 14:50:22;;;;;;;1.25;1.15;;;;;;;;;;10426235;28;20206;-82
2022/12/06 14:53:49;;;;;;;2.38;1.25;;;;;;;;;;10452991;28;20878;-82
2022/12/06 14:58:50;;;;;;;1.70;1.60;;;;;;;;;;10411962;28;21172;-82
2022/12/06 15:04:05;;;;;;;1.35;1.33;;;;;;;;;;10403860;28;21231;-81
2022/12/06 15:09:14;;;;;;;1.75;1.65;;;;;;;;;;10387432;28;20715;-82
2022/12/06 15:14:21;;;;;;;1.45;1.45;;;;;;;;;;10411082;28;20518;-80
2022/12/06 15:19:22;;;;;;;2.03;1.92;;;;;;;;;;10419411;28;20702;-81
2022/12/06 15:24:24;;;;;;;2.17;2.03;;;;;;;;;;10416560;28;20221;-79
2022/12/06 15:29:25;;;;;;;2.25;1.80;;;;;;;;;;10410217;28;20215;-78
2022/12/06 15:34:28;;;;;;;1.52;1.42;;;;;;;;;;10410477;28;20270;-79
2022/12/06 15:39:29;;;;;;;1.30;1.20;;;;;;;;;;10386267;28;20307;-80
2022/12/06 15:44:30;;;;;;;2.45;1.48;;;;;;;;;;10398026;28;20310;-80
2022/12/06 15:49:31;;;;;;;3.47;1.05;;;;;;;;;;10422134;28;20754;-80
2022/12/06 15:54:32;;;;;;;1.23;1.13;;;;;;;;;;10406871;28;20256;-80
2022/12/06 15:59:34;;;;;;;2.10;1.90;;;;;;;;;;10424985;28;20237;-80
2022/12/06 16:04:35;;;;;;;1.85;1.75;;;;;;;;;;10422342;28;20241;-80
2022/12/06 16:09:36;;;;;;;1.40;1.30;;;;;;;;;;10415625;28;20778;-80
2022/12/06 16:14:37;;;;;;;4.25;1.92;;;;;;;;;;10419341;28;20218;-80
2022/12/06 16:24:58;;;;;;;2.00;1.58;;;;;;;;;;10420724;28;20223;-81
2022/12/06 16:29:59;;;;;;;1.20;1.20;;;;;;;;;;10413996;28;20214;-80
2022/12/06 16:35:00;;;;;;;1.98;1.95;;;;;;;;;;10417731;28;20663;-80
2022/12/06 16:40:01;;;;;;;2.50;2.05;;;;;;;;;;10411198;28;20666;-81
2022/12/06 16:45:02;;;;;;;2.10;1.92;;;;;;;;;;10408540;28;20262;-80
2022/12/06 16:50:03;;;;;;;4.85;2.95;;;;;;;;;;10407876;28;20864;-80
2022/12/06 16:55:05;;;;;;;3.17;2.08;;;;;;;;;;10415500;28;24246;-80
2022/12/06 17:00:06;;;;;;;3.20;2.80;;;;;;;;;;10406114;28;20222;-80
2022/12/06 17:05:07;;;;;;;4.43;3.13;;;;;;;;;;10415383;28;20225;-80
2022/12/06 17:10:08;;;;;;;8.30;5.03;;;;;;;;;;10421353;28;20563;-80
2022/12/06 17:15:17;;;;;;;12.80;7.10;;;;;;;;;;10410988;28;20896;-80
2022/12/06 17:20:18;;;;;;;2.95;2.63;;;;;;;;;;10407405;28;20199;-81
2022/12/06 17:25:19;;;;;;;5.07;2.25;;;;;;;;;;10398228;28;20207;-80
2022/12/06 17:30:22;;;;;;;2.95;1.70;;;;;;;;;;10388481;28;20192;-79
2022/12/06 17:35:23;;;;;;;3.15;2.80;;;;;;;;;;10400221;28;20543;-80
2022/12/06 17:40:24;;;;;;;2.35;2.25;;;;;;;;;;10392074;28;20238;-80
2022/12/06 17:45:26;;;;;;;4.88;2.55;;;;;;;;;;10400193;28;20714;-80
2022/12/06 17:50:27;;;;;;;5.53;3.80;;;;;;;;;;10407980;28;20291;-80
2022/12/06 17:55:28;;;;;;;7.57;4.78;;;;;;;;;;10411461;28;20211;-81
2022/12/06 18:00:29;;;;;;;9.90;4.70;;;;;;;;;;10381440;28;20219;-81
2022/12/06 18:05:30;;;;;;;8.55;4.47;;;;;;;;;;10383206;28;20219;-80
2022/12/06 18:10:31;;;;;;;8.82;4.13;;;;;;;;;;10358534;28;20223;-80
2022/12/06 18:15:39;;;;;;;6.47;3.58;;;;;;;;;;10405668;28;20227;-81
2022/12/06 18:20:42;;;;;;;7.07;4.20;;;;;;;;;;10402195;28;20218;-80
2022/12/06 18:25:43;;;;;;;11.98;4.53;;;;;;;;;;10383479;28;20280;-81
2022/12/06 18:30:44;;;;;;;9.35;4.65;;;;;;;;;;10404349;28;20282;-81
2022/12/06 18:35:45;;;;;;;5.53;3.85;;;;;;;;;;10399179;28;20225;-80
2022/12/06 18:40:47;;;;;;;7.00;4.07;;;;;;;;;;10397603;28;20435;-81
2022/12/06 18:45:48;;;;;;;7.80;4.07;;;;;;;;;;10410349;28;20532;-80
2022/12/06 18:50:49;;;;;;;7.57;3.97;;;;;;;;;;10405356;28;20380;-79
2022/12/06 18:55:50;;;;;;;4.80;3.83;;;;;;;;;;10403845;28;20627;-79
2022/12/06 19:00:51;;;;;;;7.82;3.70;;;;;;;;;;10413038;28;20226;-79
2022/12/06 19:05:52;;;;;;;7.25;4.70;;;;;;;;;;10404493;28;20230;-80
2022/12/06 19:10:53;;;;;;;6.97;3.92;;;;;;;;;;10410000;28;20249;-80
2022/12/06 19:16:00;;;;;;;4.47;3.83;;;;;;;;;;10401686;28;20273;-82
2022/12/06 19:21:01;;;;;;;4.25;3.88;;;;;;;;;;10406850;28;20757;-79
2022/12/06 19:26:03;;;;;;;4.22;3.17;;;;;;;;;;10400390;28;20227;-79
2022/12/06 19:31:06;;;;;;;6.93;3.47;;;;;;;;;;10416542;28;20223;-79
2022/12/06 19:36:08;;;;;;;4.13;3.58;;;;;;;;;;10394465;28;20212;-80
2022/12/06 19:41:12;;;;;;;4.70;3.13;;;;;;;;;;10400244;28;20556;-79
2022/12/06 19:46:14;;;;;;;4.30;3.15;;;;;;;;;;10398304;28;20231;-80
2022/12/06 19:51:16;;;;;;;3.65;2.75;;;;;;;;;;10362727;28;20216;-78
2022/12/06 19:56:19;;;;;;;4.35;3.85;;;;;;;;;;10370152;28;20593;-77
2022/12/06 20:01:22;;;;;;;4.93;3.22;;;;;;;;;;10384962;28;20287;-77
2022/12/06 20:06:25;;;;;;;4.15;2.75;;;;;;;;;;10390960;28;20610;-77
2022/12/06 20:16:47;;;;;;;3.95;2.85;;;;;;;;;;10365740;28;20216;-78
2022/12/06 20:21:48;;;;;;;2.65;2.25;;;;;;;;;;10365171;28;20269;-76
2022/12/06 20:26:50;;;;;;;4.38;2.50;;;;;;;;;;10369094;28;20219;-79
2022/12/06 20:31:54;;;;;;;2.53;2.38;;;;;;;;;;10398228;28;20228;-76
2022/12/06 20:36:56;;;;;;;3.22;2.75;;;;;;;;;;10379575;28;20212;-77
2022/12/06 20:41:58;;;;;;;5.15;2.47;;;;;;;;;;10348998;28;20220;-76
2022/12/06 20:46:59;;;;;;;2.67;2.05;;;;;;;;;;10367767;28;20230;-76
2022/12/06 20:52:01;;;;;;;1.90;1.80;;;;;;;;;;10367531;28;20208;-78
2022/12/06 20:57:08;;;;;;;1.67;1.50;;;;;;;;;;10368212;28;20216;-76
2022/12/06 21:02:12;;;;;;;1.48;1.40;;;;;;;;;;10371325;28;20220;-77
2022/12/06 21:07:14;;;;;;;2.47;2.15;;;;;;;;;;10371985;28;20739;-79
2022/12/06 21:12:15;;;;;;;1.40;1.30;;;;;;;;;;10374293;28;20684;-76
2022/12/06 21:17:16;;;;;;;1.25;1.25;;;;;;;;;;10374659;28;20248;-77
2022/12/06 21:22:17;;;;;;;2.38;1.48;;;;;;;;;;10366455;28;20346;-77
2022/12/06 21:27:18;;;;;;;2.30;1.63;;;;;;;;;;10373421;28;20825;-76
2022/12/06 21:32:19;;;;;;;1.60;1.50;;;;;;;;;;10367581;28;20220;-76
2022/12/06 21:37:20;;;;;;;1.52;1.35;;;;;;;;;;10398740;28;20229;-76
2022/12/06 21:42:22;;;;;;;1.67;1.58;;;;;;;;;;10393713;28;20846;-78
2022/12/06 21:47:23;;;;;;;3.70;1.80;;;;;;;;;;10402012;28;20739;-76
2022/12/06 21:52:25;;;;;;;2.40;1.92;;;;;;;;;;10380415;28;20284;-76
2022/12/06 21:57:26;;;;;;;4.45;3.00;;;;;;;;;;10387835;28;20218;-76
2022/12/06 22:02:27;;;;;;;4.88;2.90;;;;;;;;;;10402026;28;20208;-76
2022/12/06 22:07:31;;;;;;;3.08;2.58;;;;;;;;;;10386676;28;20268;-76
2022/12/06 22:12:32;;;;;;;3.10;2.75;;;;;;;;;;10395042;28;20249;-76
2022/12/06 22:17:33;;;;;;;6.07;2.88;;;;;;;;;;10403677;28;20242;-76
2022/12/06 22:22:34;;;;;;;3.58;3.05;;;;;;;;;;10384645;28;20257;-76
2022/12/06 22:27:35;;;;;;;3.17;2.67;;;;;;;;;;10402827;28;20250;-76
2022/12/06 22:32:36;;;;;;;5.55;2.95;;;;;;;;;;10382336;28;20631;-75
2022/12/06 22:37:37;;;;;;;3.90;3.05;;;;;;;;;;10385724;28;20707;-78
2022/12/06 22:42:38;;;;;;;3.60;2.75;;;;;;;;;;10400308;28;20622;-76
2022/12/06 22:47:39;;;;;;;4.68;3.78;;;;;;;;;;10394769;28;20257;-76
2022/12/06 22:52:40;;;;;;;6.22;4.50;;;;;;;;;;10381574;28;20699;-76
2022/12/06 22:57:41;;;;;;;12.13;3.65;;;;;;;;;;10395506;28;20279;-75
2022/12/06 23:02:42;;;;;;;8.63;4.78;;;;;;;;;;10392522;28;20229;-76
2022/12/06 23:07:43;;;;;;;8.18;4.22;;;;;;;;;;10398693;28;20233;-77
2022/12/06 23:12:45;;;;;;;8.00;4.13;;;;;;;;;;10400194;28;20242;-74
2022/12/06 23:17:46;;;;;;;3.97;3.53;;;;;;;;;;10380418;28;20219;-76
2022/12/06 23:22:47;;;;;;;11.20;4.45;;;;;;;;;;10398845;28;20302;-76
2022/12/06 23:27:48;;;;;;;8.10;4.68;;;;;;;;;;10376225;28;20272;-75
2022/12/06 23:32:49;;;;;;;10.52;5.15;;;;;;;;;;10400652;28;20766;-77
2022/12/06 23:37:50;;;;;;;7.82;5.13;;;;;;;;;;10398037;28;20214;-77
2022/12/06 23:42:51;;;;;;;11.05;5.45;;;;;;;;;;10404442;28;20250;-76
2022/12/06 23:47:52;;;;;;;10.45;5.85;;;;;;;;;;10406824;28;20223;-75
2022/12/06 23:52:53;;;;;;;11.63;6.30;;;;;;;;;;10397971;28;20229;-76
2022/12/06 23:57:54;;;;;;;9.97;6.23;;;;;;;;;;10406345;28;20229;-76
